createdAt,value
2018-09-06T00:04:01.256Z,13.00
2018-09-06T00:08:05.794Z,13.00
2018-09-06T00:12:10.002Z,12.90
2018-09-06T00:16:14.338Z,12.80
2018-09-06T00:20:18.535Z,12.70
2018-09-06T00:24:22.990Z,12.70
2018-09-06T00:28:27.214Z,12.70
2018-09-06T00:32:31.530Z,12.60
2018-09-06T00:36:35.952Z,12.60
2018-09-06T00:40:40.272Z,12.60
2018-09-06T00:44:44.607Z,12.50
2018-09-06T00:48:48.817Z,12.50
2018-09-06T00:52:53.582Z,12.50
2018-09-06T00:56:57.876Z,12.50
2018-09-06T01:01:02.066Z,12.40
2018-09-06T01:05:06.473Z,12.40
2018-09-06T01:09:10.821Z,12.40
2018-09-06T01:13:15.073Z,12.40
2018-09-06T01:17:19.260Z,12.30
2018-09-06T01:21:23.748Z,12.30
2018-09-06T01:25:32.014Z,12.20
2018-09-06T01:29:36.240Z,12.10
2018-09-06T01:33:40.645Z,12.10
2018-09-06T01:37:44.810Z,12.10
2018-09-06T01:41:50.312Z,12.10
2018-09-06T01:45:54.564Z,12.00
2018-09-06T01:49:58.973Z,12.00
2018-09-06T01:54:03.488Z,12.00
2018-09-06T01:58:07.903Z,11.90
2018-09-06T02:02:12.098Z,11.90
2018-09-06T02:06:16.479Z,11.90
2018-09-06T02:10:20.655Z,11.90
2018-09-06T02:14:25.115Z,11.80
2018-09-06T02:18:29.286Z,11.80
2018-09-06T02:22:33.763Z,11.80
2018-09-06T02:26:37.981Z,11.90
2018-09-06T02:30:42.196Z,11.80
2018-09-06T02:34:46.508Z,11.70
2018-09-06T02:38:50.726Z,11.70
2018-09-06T02:42:55.078Z,11.60
2018-09-06T02:46:59.301Z,11.60
2018-09-06T02:51:08.815Z,11.60
2018-09-06T02:55:13.136Z,11.60
2018-09-06T02:59:17.370Z,11.50
2018-09-06T03:03:21.629Z,11.50
2018-09-06T03:07:26.060Z,11.60
2018-09-06T03:11:35.465Z,11.50
2018-09-06T03:15:39.768Z,11.50
2018-09-06T03:19:43.933Z,11.60
2018-09-06T03:23:48.193Z,11.60
2018-09-06T03:27:52.429Z,11.60
2018-09-06T03:31:56.644Z,11.60
2018-09-06T03:36:01.020Z,11.50
2018-09-06T03:40:05.185Z,11.50
2018-09-06T03:44:09.535Z,11.50
2018-09-06T03:48:13.773Z,11.50
2018-09-06T03:52:18.048Z,11.60
2018-09-06T03:56:22.373Z,11.70
2018-09-06T04:00:26.563Z,11.70
2018-09-06T04:04:30.925Z,11.60
2018-09-06T04:08:35.261Z,11.50
2018-09-06T04:12:39.648Z,11.50
2018-09-06T04:16:44.041Z,11.50
2018-09-06T04:20:48.205Z,11.50
2018-09-06T04:24:52.402Z,11.50
2018-09-06T04:28:56.879Z,11.50
2018-09-06T04:33:01.082Z,11.50
2018-09-06T04:37:05.550Z,11.50
2018-09-06T04:41:09.833Z,11.50
2018-09-06T04:45:14.255Z,11.50
2018-09-06T04:49:19.100Z,11.60
2018-09-06T04:53:23.292Z,11.70
2018-09-06T04:57:27.550Z,11.70
2018-09-06T05:01:31.780Z,11.70
2018-09-06T05:05:36.112Z,11.70
2018-09-06T05:09:40.260Z,11.80
2018-09-06T05:13:44.474Z,12.00
2018-09-06T05:17:49.487Z,12.20
2018-09-06T05:21:54.003Z,12.50
2018-09-06T05:25:58.255Z,12.70
2018-09-06T05:30:02.494Z,12.80
2018-09-06T05:34:06.779Z,13.00
2018-09-06T05:38:11.182Z,13.10
2018-09-06T05:42:15.424Z,13.30
2018-09-06T05:46:19.745Z,13.40
2018-09-06T05:50:24.053Z,13.50
2018-09-06T05:54:28.331Z,13.70
2018-09-06T05:58:32.605Z,13.70
2018-09-06T06:02:36.992Z,13.90
2018-09-06T06:06:41.233Z,14.00
2018-09-06T06:10:45.906Z,14.20
2018-09-06T06:14:50.225Z,14.30
2018-09-06T06:18:54.437Z,14.40
2018-09-06T06:22:58.734Z,14.50
2018-09-06T06:27:03.156Z,14.50
2018-09-06T06:31:07.348Z,14.90
2018-09-06T06:35:11.665Z,15.20
2018-09-06T06:39:15.963Z,15.60
2018-09-06T06:43:20.164Z,15.70
2018-09-06T06:47:24.608Z,15.90
2018-09-06T06:51:29.843Z,16.10
2018-09-06T06:55:34.063Z,16.20
2018-09-06T06:59:38.295Z,16.40
2018-09-06T07:03:42.612Z,16.60
2018-09-06T07:07:46.847Z,17.00
2018-09-06T07:11:51.345Z,17.30
2018-09-06T07:15:55.524Z,17.70
2018-09-06T07:19:59.872Z,18.10
2018-09-06T07:24:04.074Z,18.40
2018-09-06T07:28:08.461Z,18.60
2018-09-06T07:32:12.728Z,18.90
2018-09-06T07:36:16.977Z,19.00
2018-09-06T07:40:21.213Z,19.20
2018-09-06T07:44:26.107Z,19.50
2018-09-06T07:48:30.461Z,19.90
2018-09-06T07:52:34.821Z,20.10
2018-09-06T07:56:39.015Z,20.40
2018-09-06T08:00:43.274Z,20.40
2018-09-06T08:04:47.436Z,20.90
2018-09-06T08:08:51.757Z,21.20
2018-09-06T08:12:55.948Z,21.80
2018-09-06T08:17:00.409Z,22.10
2018-09-06T08:21:04.650Z,22.00
2018-09-06T08:25:08.963Z,22.00
2018-09-06T08:29:13.184Z,21.90
2018-09-06T08:33:17.627Z,22.00
2018-09-06T08:37:21.827Z,21.80
2018-09-06T08:41:26.200Z,21.80
2018-09-06T08:45:30.463Z,21.90
2018-09-06T08:49:34.909Z,22.40
2018-09-06T08:53:39.114Z,23.30
2018-09-06T08:57:43.919Z,24.00
2018-09-06T09:01:48.168Z,24.70
2018-09-06T09:05:52.491Z,25.60
2018-09-06T09:09:56.750Z,25.40
2018-09-06T09:14:02.117Z,25.60
2018-09-06T09:18:06.348Z,25.00
2018-09-06T09:22:10.670Z,25.70
2018-09-06T09:26:14.916Z,25.80
2018-09-06T09:30:19.320Z,25.80
2018-09-06T09:34:23.912Z,25.40
2018-09-06T09:38:28.393Z,25.80
2018-09-06T09:42:32.721Z,25.60
2018-09-06T09:54:47.480Z,25.10
2018-09-06T09:58:51.683Z,26.00
2018-09-06T10:03:01.123Z,26.30
2018-09-06T10:07:10.559Z,26.60
2018-09-06T10:11:15.200Z,26.40
2018-09-06T10:15:19.552Z,26.30
2018-09-06T10:19:23.832Z,26.20
2018-09-06T10:23:28.129Z,27.40
2018-09-06T10:27:32.875Z,27.10
2018-09-06T10:31:37.157Z,27.30
2018-09-06T10:35:41.481Z,27.70
2018-09-06T10:39:45.780Z,27.80
2018-09-06T10:43:50.076Z,28.10
2018-09-06T10:48:21.329Z,28.50
2018-09-06T10:52:25.827Z,29.60
2018-09-06T10:56:30.392Z,29.10
2018-09-06T11:00:34.682Z,29.20
2018-09-06T11:04:39.200Z,28.70
2018-09-06T11:08:43.432Z,29.30
2018-09-06T11:12:47.646Z,29.80
2018-09-06T11:16:52.051Z,30.40
2018-09-06T11:20:56.278Z,30.50
2018-09-06T11:25:00.894Z,32.00
2018-09-06T11:29:05.188Z,30.70
2018-09-06T11:33:09.562Z,30.50
2018-09-06T11:37:14.044Z,30.20
2018-09-06T11:41:18.287Z,30.20
2018-09-06T11:45:22.567Z,31.40
2018-09-06T11:49:26.797Z,32.40
2018-09-06T11:53:31.020Z,33.40
2018-09-06T11:57:35.233Z,32.90
2018-09-06T12:01:39.622Z,33.40
2018-09-06T12:05:43.833Z,33.30
2018-09-06T12:09:48.071Z,32.60
2018-09-06T12:13:52.451Z,32.30
2018-09-06T12:17:56.620Z,31.80
2018-09-06T12:22:00.968Z,32.60
2018-09-06T12:26:05.345Z,30.80
2018-09-06T12:30:09.541Z,30.90
2018-09-06T12:34:13.843Z,31.80
2018-09-06T12:38:18.094Z,31.70
2018-09-06T12:42:22.551Z,30.50
2018-09-06T12:46:26.905Z,30.40
2018-09-06T12:50:31.176Z,31.90
2018-09-06T12:54:35.886Z,33.10
2018-09-06T12:58:40.223Z,33.80
2018-09-06T13:02:44.523Z,34.00
2018-09-06T13:06:48.788Z,33.80
2018-09-06T13:10:53.193Z,35.00
2018-09-06T13:14:57.366Z,34.60
2018-09-06T13:19:01.897Z,34.00
2018-09-06T13:23:06.275Z,33.50
2018-09-06T13:27:10.633Z,33.40
2018-09-06T13:31:14.920Z,33.90
2018-09-06T13:35:19.249Z,34.90
2018-09-06T13:39:23.435Z,35.00
2018-09-06T13:43:28.835Z,34.60
2018-09-06T13:47:33.195Z,34.70
2018-09-06T13:51:37.383Z,34.90
2018-09-06T13:55:42.013Z,35.40
2018-09-06T13:59:47.213Z,35.90
2018-09-06T14:03:51.489Z,36.10
2018-09-06T14:07:55.685Z,33.60
2018-09-06T14:12:00.177Z,33.30
2018-09-06T14:16:04.500Z,33.20
2018-09-06T14:20:08.717Z,33.80
2018-09-06T14:24:12.976Z,34.20
2018-09-06T14:28:17.176Z,34.30
2018-09-06T14:32:21.375Z,34.90
2018-09-06T14:36:25.606Z,35.10
2018-09-06T14:40:29.792Z,35.80
2018-09-06T14:44:34.089Z,34.50
2018-09-06T14:48:38.651Z,31.70
2018-09-06T14:52:43.037Z,30.80
2018-09-06T14:56:47.212Z,30.40
2018-09-06T15:00:51.589Z,30.30
2018-09-06T15:04:55.810Z,30.10
2018-09-06T15:09:00.057Z,30.70
2018-09-06T15:13:04.310Z,29.40
2018-09-06T15:17:08.593Z,28.20
2018-09-06T15:21:12.801Z,27.10
2018-09-06T15:25:16.983Z,27.80
2018-09-06T15:29:21.279Z,28.50
2018-09-06T15:33:25.535Z,28.60
2018-09-06T15:37:29.805Z,27.60
2018-09-06T15:41:34.026Z,26.50
2018-09-06T15:45:38.327Z,25.50
2018-09-06T15:49:42.572Z,25.00
2018-09-06T15:53:46.775Z,24.60
2018-09-06T15:57:51.038Z,24.20
2018-09-06T16:01:55.267Z,23.80
2018-09-06T16:05:59.471Z,23.30
2018-09-06T16:10:03.747Z,22.80
2018-09-06T16:14:08.061Z,22.50
2018-09-06T16:18:12.497Z,22.20
2018-09-06T16:22:16.737Z,21.80
2018-09-06T16:26:20.968Z,21.70
2018-09-06T16:30:26.082Z,21.50
2018-09-06T16:34:30.628Z,21.40
2018-09-06T16:38:34.831Z,21.20
2018-09-06T16:42:39.285Z,21.00
2018-09-06T16:46:43.500Z,20.80
2018-09-06T16:50:47.707Z,20.70
2018-09-06T16:54:52.024Z,20.60
2018-09-06T16:58:56.343Z,20.60
2018-09-06T17:03:00.705Z,20.40
2018-09-06T17:07:05.222Z,20.20
2018-09-06T17:11:09.496Z,20.10
2018-09-06T17:15:13.836Z,20.00
2018-09-06T17:19:18.042Z,19.80
2018-09-06T17:23:22.471Z,19.60
2018-09-06T17:27:27.069Z,19.40
2018-09-06T17:31:31.768Z,19.20
2018-09-06T17:35:36.265Z,19.00
2018-09-06T17:39:40.771Z,18.90
2018-09-06T17:43:46.133Z,18.60
2018-09-06T17:47:50.543Z,18.40
2018-09-06T17:51:54.930Z,18.30
2018-09-06T17:55:59.169Z,18.20
2018-09-06T18:00:03.536Z,18.00
2018-09-06T18:04:08.420Z,17.90
2018-09-06T18:08:12.699Z,17.70
2018-09-06T18:12:18.220Z,17.60
2018-09-06T18:16:22.622Z,17.50
2018-09-06T18:20:26.860Z,17.40
2018-09-06T18:24:31.189Z,17.30
2018-09-06T18:28:35.549Z,17.30
2018-09-06T18:32:39.884Z,17.20
2018-09-06T18:36:44.212Z,17.10
2018-09-06T18:40:49.945Z,17.00
2018-09-06T18:45:04.292Z,16.90
2018-09-06T18:49:14.702Z,16.80
2018-09-06T18:53:26.103Z,16.80
2018-09-06T18:57:35.587Z,16.70
2018-09-06T19:01:45.952Z,16.70
2018-09-06T19:05:52.287Z,16.60
2018-09-06T19:10:06.118Z,16.60
2018-09-06T19:14:10.472Z,16.70
2018-09-06T19:18:16.407Z,16.70
2018-09-06T19:22:20.637Z,16.70
2018-09-06T19:26:25.055Z,16.70
2018-09-06T19:30:29.367Z,16.70
2018-09-06T19:34:35.038Z,16.70
2018-09-06T19:38:41.014Z,16.80
2018-09-06T19:42:46.107Z,16.90
2018-09-06T19:46:50.342Z,17.10
2018-09-06T19:50:54.661Z,16.90
2018-09-06T19:54:58.837Z,16.90
2018-09-06T19:59:03.077Z,16.80
2018-09-06T20:03:07.327Z,16.80
2018-09-06T20:07:11.525Z,16.80
2018-09-06T20:11:15.744Z,16.80
2018-09-06T20:15:20.330Z,16.80
2018-09-06T20:19:24.631Z,17.00
2018-09-06T20:23:28.919Z,17.00
2018-09-06T20:27:37.095Z,16.90
2018-09-06T20:31:41.277Z,16.90
2018-09-06T20:35:45.551Z,17.10
2018-09-06T20:39:49.817Z,17.00
2018-09-06T20:43:54.088Z,16.90
2018-09-06T20:47:58.385Z,16.70
2018-09-06T20:52:02.631Z,16.70
2018-09-06T20:56:06.951Z,16.60
2018-09-06T21:00:11.148Z,16.60
2018-09-06T21:04:15.424Z,16.50
2018-09-06T21:08:19.675Z,16.60
2018-09-06T21:12:23.845Z,16.50
2018-09-06T21:16:28.172Z,16.50
2018-09-06T21:20:32.304Z,16.40
2018-09-06T21:24:36.568Z,16.30
2018-09-06T21:28:40.768Z,16.30
2018-09-06T21:32:44.943Z,16.20
2018-09-06T21:36:49.299Z,16.20
2018-09-06T21:40:53.507Z,16.10
2018-09-06T21:44:57.856Z,16.10
2018-09-06T21:49:02.075Z,16.00
2018-09-06T21:53:06.403Z,16.00
2018-09-06T21:57:10.563Z,16.00
2018-09-06T22:01:14.876Z,16.00
2018-09-06T22:05:19.075Z,15.90
2018-09-06T22:09:23.370Z,15.90
2018-09-06T22:13:27.785Z,15.90
2018-09-06T22:17:32.015Z,15.80
2018-09-06T22:21:36.820Z,15.80
2018-09-06T22:25:41.025Z,15.70
2018-09-06T22:29:45.355Z,15.60
2018-09-06T22:33:49.583Z,15.50
2018-09-06T22:37:53.881Z,15.60
2018-09-06T22:41:58.067Z,15.60
2018-09-06T22:46:02.759Z,15.60
2018-09-06T22:50:07.106Z,15.60
2018-09-06T22:54:11.280Z,15.70
2018-09-06T22:58:15.523Z,15.70
2018-09-06T23:02:19.817Z,15.80
2018-09-06T23:06:24.227Z,15.70
2018-09-06T23:10:28.917Z,15.50
2018-09-06T23:14:33.231Z,15.40
2018-09-06T23:18:37.420Z,15.30
2018-09-06T23:22:41.877Z,15.20
2018-09-06T23:26:46.244Z,15.20
2018-09-06T23:30:50.431Z,15.20
2018-09-06T23:34:54.781Z,15.20
2018-09-06T23:38:59.017Z,15.20
2018-09-06T23:43:03.671Z,15.20
2018-09-06T23:47:07.836Z,15.10
2018-09-06T23:51:12.209Z,15.10
2018-09-06T23:55:16.401Z,15.10
2018-09-06T23:59:20.866Z,15.10
